DHK39A EDDP-EKCH
Flight info
| Callsign | DHK39A |
|---|---|
| Flight time | 0h 50m |
| Altitude | 36000 |
| Route | PENEM1N PENEM Y233 ODLUN Z207 MAG M736 SOGMA M748 ERNUD M726 ROSOK Q296 MONAK |
| Aircraft | A333/H-SDE3GHIJ2J3J5M1RVWXY/LB2D1 |
Departure
| Time | 2026-04-23 20:03 |
|---|---|
| Airport | Leipzig/Halle Airport (EDDP) |
Arrival
| Time | 2026-04-23 20:53 |
|---|---|
| Airport | Copenhagen Kastrup Airport (EKCH) |
| Time | Latitude | Longitude | Altitude | Speed | Heading |
|---|---|---|---|---|---|
| 2026-04-23 19:37 | 51.40871 | 12.25015 | 471 ft | 0 kts | 265° |
| 2026-04-23 19:54 | 51.40872 | 12.25041 | 465 ft | 4 kts | 271° |
| 2026-04-23 19:54 | 51.40869 | 12.25083 | 465 ft | 4 kts | 290° |
| 2026-04-23 19:54 | 51.40856 | 12.25116 | 465 ft | 4 kts | 333° |
| 2026-04-23 19:54 | 51.40846 | 12.25123 | 465 ft | 1 kts | 355° |
| 2026-04-23 19:58 | 51.40851 | 12.25122 | 465 ft | 2 kts | 355° |
| 2026-04-23 19:58 | 51.40894 | 12.25117 | 466 ft | 6 kts | 356° |
| 2026-04-23 19:59 | 51.40929 | 12.25113 | 470 ft | 4 kts | 355° |
| 2026-04-23 19:59 | 51.40950 | 12.25110 | 468 ft | 3 kts | 355° |
| 2026-04-23 19:59 | 51.41000 | 12.25104 | 470 ft | 9 kts | 355° |
| 2026-04-23 19:59 | 51.41058 | 12.25096 | 471 ft | 8 kts | 355° |
| 2026-04-23 20:00 | 51.41107 | 12.25112 | 473 ft | 5 kts | 33° |
| 2026-04-23 20:00 | 51.41120 | 12.25158 | 478 ft | 6 kts | 77° |
| 2026-04-23 20:00 | 51.41125 | 12.25237 | 479 ft | 9 kts | 86° |
| 2026-04-23 20:00 | 51.41130 | 12.25346 | 480 ft | 11 kts | 85° |
| 2026-04-23 20:01 | 51.41136 | 12.25483 | 476 ft | 14 kts | 86° |
| 2026-04-23 20:01 | 51.41177 | 12.25616 | 474 ft | 12 kts | 18° |
| 2026-04-23 20:01 | 51.41252 | 12.25619 | 478 ft | 9 kts | 358° |
| 2026-04-23 20:01 | 51.41296 | 12.25613 | 474 ft | 4 kts | 353° |
| 2026-04-23 20:02 | 51.41341 | 12.25589 | 474 ft | 12 kts | 334° |
| 2026-04-23 20:02 | 51.41391 | 12.25459 | 469 ft | 12 kts | 276° |
| 2026-04-23 20:02 | 51.41391 | 12.25395 | 468 ft | 1 kts | 266° |
| 2026-04-23 20:02 | 51.41378 | 12.25083 | 474 ft | 59 kts | 265° |
| 2026-04-23 20:03 | 51.41332 | 12.24119 | 468 ft | 113 kts | 266° |
| 2026-04-23 20:03 | 51.41263 | 12.22611 | 536 ft | 151 kts | 264° |
| 2026-04-23 20:03 | 51.41193 | 12.20954 | 1087 ft | 151 kts | 269° |
| 2026-04-23 20:03 | 51.41116 | 12.19279 | 1728 ft | 151 kts | 270° |
| 2026-04-23 20:04 | 51.41049 | 12.17591 | 2341 ft | 152 kts | 273° |
| 2026-04-23 20:04 | 51.41002 | 12.15862 | 2814 ft | 164 kts | 272° |
| 2026-04-23 20:04 | 51.40911 | 12.13938 | 3211 ft | 179 kts | 270° |
| 2026-04-23 20:04 | 51.40897 | 12.11910 | 3722 ft | 185 kts | 279° |
| 2026-04-23 20:05 | 51.41122 | 12.10586 | 4060 ft | 189 kts | 296° |
| 2026-04-23 20:05 | 51.42415 | 12.08414 | 4889 ft | 225 kts | 331° |
| 2026-04-23 20:05 | 51.44031 | 12.07772 | 5513 ft | 251 kts | 348° |
| 2026-04-23 20:05 | 51.45764 | 12.07609 | 6436 ft | 248 kts | 351° |
| 2026-04-23 20:06 | 51.47503 | 12.07628 | 7093 ft | 257 kts | 2° |
| 2026-04-23 20:06 | 51.49354 | 12.07833 | 7427 ft | 270 kts | 2° |
| 2026-04-23 20:06 | 51.51202 | 12.07997 | 7484 ft | 262 kts | 1° |
| 2026-04-23 20:06 | 51.53005 | 12.08108 | 7494 ft | 258 kts | 1° |
| 2026-04-23 20:07 | 51.54798 | 12.08212 | 7495 ft | 257 kts | 1° |
| 2026-04-23 20:07 | 51.56588 | 12.08302 | 7510 ft | 260 kts | 1° |
| 2026-04-23 20:07 | 51.58475 | 12.08383 | 8038 ft | 274 kts | 1° |
| 2026-04-23 20:07 | 51.60386 | 12.08432 | 9295 ft | 271 kts | 359° |
| 2026-04-23 20:08 | 51.62244 | 12.08428 | 10667 ft | 264 kts | 352° |
| 2026-04-23 20:08 | 51.64081 | 12.08285 | 11524 ft | 272 kts | 351° |
| 2026-04-23 20:08 | 51.66066 | 12.08316 | 12103 ft | 293 kts | 2° |
| 2026-04-23 20:08 | 51.68157 | 12.08327 | 12559 ft | 314 kts | 347° |
| 2026-04-23 20:09 | 51.70305 | 12.07359 | 13095 ft | 330 kts | 332° |
| 2026-04-23 20:09 | 51.72280 | 12.05360 | 13785 ft | 340 kts | 315° |
| 2026-04-23 20:09 | 51.73966 | 12.02590 | 14391 ft | 351 kts | 307° |
| 2026-04-23 20:09 | 51.75521 | 11.99501 | 15024 ft | 356 kts | 305° |
| 2026-04-23 20:10 | 51.76536 | 11.97403 | 15488 ft | 358 kts | 305° |
| 2026-04-23 20:10 | 51.78091 | 11.94229 | 16171 ft | 361 kts | 306° |
| 2026-04-23 20:10 | 51.80220 | 11.90068 | 17030 ft | 365 kts | 307° |
| 2026-04-23 20:10 | 51.81909 | 11.86994 | 17645 ft | 367 kts | 319° |
| 2026-04-23 20:11 | 51.83279 | 11.85300 | 18155 ft | 365 kts | 329° |
| 2026-04-23 20:11 | 51.85555 | 11.83489 | 18865 ft | 366 kts | 340° |
| 2026-04-23 20:11 | 51.88013 | 11.82403 | 19478 ft | 368 kts | 347° |
| 2026-04-23 20:11 | 51.90498 | 11.81601 | 20071 ft | 371 kts | 349° |
| 2026-04-23 20:12 | 51.93056 | 11.80876 | 20642 ft | 374 kts | 350° |
| 2026-04-23 20:12 | 51.95633 | 11.80179 | 21251 ft | 377 kts | 349° |
| 2026-04-23 20:12 | 51.98239 | 11.79577 | 21725 ft | 382 kts | 354° |
| 2026-04-23 20:12 | 52.00918 | 11.79538 | 22187 ft | 387 kts | 1° |
| 2026-04-23 20:13 | 52.03613 | 11.79793 | 22764 ft | 389 kts | 4° |
| 2026-04-23 20:13 | 52.06318 | 11.80235 | 23308 ft | 392 kts | 6° |
| 2026-04-23 20:13 | 52.09033 | 11.80787 | 23835 ft | 395 kts | 7° |
| 2026-04-23 20:13 | 52.11775 | 11.81364 | 24249 ft | 398 kts | 7° |
| 2026-04-23 20:14 | 52.14534 | 11.81925 | 24660 ft | 401 kts | 6° |
| 2026-04-23 20:14 | 52.17319 | 11.82461 | 25095 ft | 404 kts | 6° |
| 2026-04-23 20:14 | 52.20113 | 11.82971 | 25573 ft | 404 kts | 6° |
| 2026-04-23 20:14 | 52.22919 | 11.83466 | 25990 ft | 407 kts | 6° |
| 2026-04-23 20:15 | 52.25740 | 11.83955 | 26365 ft | 410 kts | 6° |
| 2026-04-23 20:15 | 52.28587 | 11.84435 | 26746 ft | 412 kts | 4° |
| 2026-04-23 20:15 | 52.31459 | 11.84852 | 27106 ft | 415 kts | 3° |
| 2026-04-23 20:15 | 52.34345 | 11.85253 | 27463 ft | 418 kts | 4° |
| 2026-04-23 20:16 | 52.37207 | 11.85671 | 27811 ft | 420 kts | 4° |
| 2026-04-23 20:16 | 52.40129 | 11.86126 | 28165 ft | 422 kts | 4° |
| 2026-04-23 20:16 | 52.43060 | 11.86610 | 28519 ft | 424 kts | 4° |
| 2026-04-23 20:16 | 52.46007 | 11.87114 | 28900 ft | 426 kts | 4° |
| 2026-04-23 20:17 | 52.48955 | 11.87627 | 29216 ft | 428 kts | 5° |
| 2026-04-23 20:17 | 52.51933 | 11.88151 | 29530 ft | 431 kts | 5° |
| 2026-04-23 20:17 | 52.54922 | 11.88678 | 29846 ft | 433 kts | 5° |
| 2026-04-23 20:17 | 52.57935 | 11.88987 | 30169 ft | 435 kts | 359° |
| 2026-04-23 20:18 | 52.60959 | 11.88629 | 30425 ft | 437 kts | 351° |
| 2026-04-23 20:18 | 52.63932 | 11.87488 | 30685 ft | 441 kts | 341° |
| 2026-04-23 20:18 | 52.66731 | 11.85545 | 30978 ft | 443 kts | 332° |
| 2026-04-23 20:18 | 52.69378 | 11.82793 | 31293 ft | 445 kts | 326° |
| 2026-04-23 20:19 | 52.71859 | 11.79834 | 31539 ft | 447 kts | 324° |
| 2026-04-23 20:19 | 52.74335 | 11.76709 | 31774 ft | 449 kts | 323° |
| 2026-04-23 20:19 | 52.76799 | 11.73521 | 32092 ft | 449 kts | 322° |
| 2026-04-23 20:19 | 52.79248 | 11.70334 | 32481 ft | 447 kts | 322° |
| 2026-04-23 20:20 | 52.81696 | 11.67156 | 32846 ft | 446 kts | 323° |
| 2026-04-23 20:20 | 52.84145 | 11.63993 | 33053 ft | 447 kts | 322° |
| 2026-04-23 20:20 | 52.86616 | 11.60841 | 33254 ft | 449 kts | 324° |
| 2026-04-23 20:20 | 52.89237 | 11.58061 | 33556 ft | 447 kts | 331° |
| 2026-04-23 20:21 | 52.92045 | 11.55898 | 33927 ft | 444 kts | 339° |
| 2026-04-23 20:21 | 52.95000 | 11.54445 | 34257 ft | 441 kts | 347° |
| 2026-04-23 20:21 | 52.98038 | 11.53765 | 34525 ft | 440 kts | 356° |
| 2026-04-23 20:21 | 53.01099 | 11.53863 | 34777 ft | 440 kts | 2° |
| 2026-04-23 20:22 | 53.04145 | 11.54324 | 35039 ft | 439 kts | 4° |
| 2026-04-23 20:22 | 53.07183 | 11.54914 | 35291 ft | 439 kts | 5° |
| 2026-04-23 20:22 | 53.10173 | 11.55557 | 35534 ft | 439 kts | 5° |
| 2026-04-23 20:22 | 53.13201 | 11.56227 | 35761 ft | 439 kts | 5° |
| 2026-04-23 20:23 | 53.16230 | 11.56895 | 35983 ft | 439 kts | 5° |
| 2026-04-23 20:23 | 53.19260 | 11.57553 | 36161 ft | 440 kts | 5° |
| 2026-04-23 20:23 | 53.22311 | 11.58204 | 36186 ft | 444 kts | 5° |
| 2026-04-23 20:24 | 53.28415 | 11.60447 | 36186 ft | 452 kts | 12° |
| 2026-04-23 20:24 | 53.34357 | 11.63292 | 36179 ft | 436 kts | 14° |
| 2026-04-23 20:25 | 53.40123 | 11.66192 | 36173 ft | 429 kts | 14° |
| 2026-04-23 20:25 | 53.45812 | 11.69067 | 36175 ft | 424 kts | 13° |
| 2026-04-23 20:26 | 53.51431 | 11.71891 | 36174 ft | 428 kts | 13° |
| 2026-04-23 20:26 | 53.57192 | 11.74774 | 36168 ft | 433 kts | 13° |
| 2026-04-23 20:27 | 53.62961 | 11.77671 | 36169 ft | 432 kts | 13° |
| 2026-04-23 20:27 | 53.68738 | 11.80433 | 36163 ft | 431 kts | 11° |
| 2026-04-23 20:28 | 53.74484 | 11.83416 | 36161 ft | 432 kts | 16° |
| 2026-04-23 20:28 | 53.80190 | 11.86581 | 36161 ft | 431 kts | 15° |
| 2026-04-23 20:29 | 53.85882 | 11.89601 | 36157 ft | 431 kts | 15° |
| 2026-04-23 20:29 | 53.91629 | 11.92554 | 36164 ft | 431 kts | 14° |
| 2026-04-23 20:30 | 53.97370 | 11.95483 | 36153 ft | 429 kts | 14° |
| 2026-04-23 20:30 | 54.05904 | 11.99857 | 36154 ft | 429 kts | 14° |
| 2026-04-23 20:31 | 54.08760 | 12.01327 | 35971 ft | 428 kts | 14° |
| 2026-04-23 20:31 | 54.11605 | 12.02796 | 35503 ft | 426 kts | 14° |
| 2026-04-23 20:31 | 54.14426 | 12.04255 | 35116 ft | 421 kts | 14° |
| 2026-04-23 20:31 | 54.17224 | 12.05705 | 34676 ft | 418 kts | 14° |
| 2026-04-23 20:32 | 54.20006 | 12.07147 | 34211 ft | 416 kts | 14° |
| 2026-04-23 20:32 | 54.22778 | 12.08585 | 33585 ft | 416 kts | 14° |
| 2026-04-23 20:32 | 54.25554 | 12.10026 | 32901 ft | 418 kts | 14° |
| 2026-04-23 20:32 | 54.28340 | 12.11474 | 32201 ft | 419 kts | 14° |
| 2026-04-23 20:33 | 54.31145 | 12.12934 | 31519 ft | 421 kts | 14° |
| 2026-04-23 20:33 | 54.33946 | 12.14395 | 30940 ft | 420 kts | 14° |
| 2026-04-23 20:33 | 54.36737 | 12.15855 | 30408 ft | 418 kts | 14° |
| 2026-04-23 20:33 | 54.39512 | 12.17308 | 29889 ft | 415 kts | 14° |
| 2026-04-23 20:34 | 54.42233 | 12.18736 | 29219 ft | 415 kts | 14° |
| 2026-04-23 20:34 | 54.44996 | 12.20185 | 28452 ft | 416 kts | 14° |
| 2026-04-23 20:34 | 54.47751 | 12.21632 | 27705 ft | 410 kts | 14° |
| 2026-04-23 20:34 | 54.50476 | 12.23070 | 26971 ft | 399 kts | 14° |
| 2026-04-23 20:35 | 54.53086 | 12.24448 | 26292 ft | 396 kts | 14° |
| 2026-04-23 20:35 | 54.55710 | 12.25833 | 25450 ft | 395 kts | 14° |
| 2026-04-23 20:35 | 54.58334 | 12.27217 | 24879 ft | 393 kts | 14° |
| 2026-04-23 20:35 | 54.60985 | 12.28197 | 24443 ft | 386 kts | 3° |
| 2026-04-23 20:36 | 54.63658 | 12.28567 | 23937 ft | 383 kts | 0° |
| 2026-04-23 20:36 | 54.66312 | 12.28813 | 23356 ft | 381 kts | 0° |
| 2026-04-23 20:36 | 54.68964 | 12.29034 | 22710 ft | 380 kts | 0° |
| 2026-04-23 20:36 | 54.71601 | 12.29251 | 22073 ft | 379 kts | 0° |
| 2026-04-23 20:37 | 54.74225 | 12.29467 | 21465 ft | 377 kts | 0° |
| 2026-04-23 20:37 | 54.76840 | 12.29685 | 20894 ft | 375 kts | 0° |
| 2026-04-23 20:37 | 54.79426 | 12.29901 | 20443 ft | 369 kts | 0° |
| 2026-04-23 20:37 | 54.81942 | 12.30111 | 19996 ft | 364 kts | 0° |
| 2026-04-23 20:38 | 54.84493 | 12.30324 | 19518 ft | 360 kts | 0° |
| 2026-04-23 20:38 | 54.86951 | 12.30529 | 19040 ft | 356 kts | 0° |
| 2026-04-23 20:38 | 54.89409 | 12.30735 | 18587 ft | 348 kts | 0° |
| 2026-04-23 20:38 | 54.91764 | 12.30939 | 18141 ft | 329 kts | 1° |
| 2026-04-23 20:39 | 54.93984 | 12.31457 | 17554 ft | 317 kts | 12° |
| 2026-04-23 20:39 | 54.95984 | 12.32912 | 17046 ft | 307 kts | 25° |
| 2026-04-23 20:39 | 54.97781 | 12.34839 | 16397 ft | 301 kts | 26° |
| 2026-04-23 20:39 | 54.99521 | 12.36822 | 15779 ft | 298 kts | 26° |
| 2026-04-23 20:40 | 55.01254 | 12.38817 | 15300 ft | 298 kts | 27° |
| 2026-04-23 20:40 | 55.02978 | 12.40805 | 14932 ft | 296 kts | 27° |
| 2026-04-23 20:40 | 55.04685 | 12.42796 | 14598 ft | 293 kts | 31° |
| 2026-04-23 20:40 | 55.06347 | 12.44857 | 14265 ft | 292 kts | 31° |
| 2026-04-23 20:41 | 55.07997 | 12.46843 | 13945 ft | 289 kts | 25° |
| 2026-04-23 20:41 | 55.09872 | 12.47860 | 13581 ft | 280 kts | 1° |
| 2026-04-23 20:41 | 55.11758 | 12.47292 | 13221 ft | 275 kts | 334° |
| 2026-04-23 20:41 | 55.13308 | 12.45325 | 12860 ft | 276 kts | 317° |
| 2026-04-23 20:42 | 55.14647 | 12.42924 | 12499 ft | 277 kts | 314° |
| 2026-04-23 20:42 | 55.15966 | 12.40458 | 12157 ft | 276 kts | 314° |
| 2026-04-23 20:42 | 55.17250 | 12.38047 | 11773 ft | 273 kts | 314° |
| 2026-04-23 20:42 | 55.18557 | 12.35591 | 11234 ft | 278 kts | 314° |
| 2026-04-23 20:43 | 55.19868 | 12.33132 | 10701 ft | 273 kts | 314° |
| 2026-04-23 20:43 | 55.21134 | 12.30752 | 10257 ft | 261 kts | 314° |
| 2026-04-23 20:43 | 55.22347 | 12.28463 | 9834 ft | 252 kts | 314° |
| 2026-04-23 20:43 | 55.23543 | 12.26206 | 9282 ft | 256 kts | 314° |
| 2026-04-23 20:44 | 55.24902 | 12.24188 | 8701 ft | 254 kts | 332° |
| 2026-04-23 20:44 | 55.26570 | 12.23444 | 8225 ft | 245 kts | 357° |
| 2026-04-23 20:44 | 55.28219 | 12.23951 | 7824 ft | 238 kts | 12° |
| 2026-04-23 20:44 | 55.29743 | 12.24830 | 7468 ft | 228 kts | 14° |
| 2026-04-23 20:45 | 55.31200 | 12.25733 | 7080 ft | 217 kts | 14° |
| 2026-04-23 20:45 | 55.32591 | 12.26604 | 6700 ft | 208 kts | 14° |
| 2026-04-23 20:45 | 55.33936 | 12.27446 | 6309 ft | 202 kts | 14° |
| 2026-04-23 20:45 | 55.35239 | 12.28259 | 5986 ft | 194 kts | 14° |
| 2026-04-23 20:46 | 55.36469 | 12.29096 | 5705 ft | 186 kts | 20° |
| 2026-04-23 20:46 | 55.37634 | 12.30032 | 5392 ft | 181 kts | 21° |
| 2026-04-23 20:46 | 55.38717 | 12.31119 | 5086 ft | 177 kts | 28° |
| 2026-04-23 20:46 | 55.39754 | 12.32246 | 4793 ft | 171 kts | 26° |
| 2026-04-23 20:47 | 55.40770 | 12.33253 | 4544 ft | 164 kts | 26° |
| 2026-04-23 20:47 | 55.41713 | 12.34338 | 4298 ft | 158 kts | 27° |
| 2026-04-23 20:47 | 55.42636 | 12.35394 | 4052 ft | 158 kts | 30° |
| 2026-04-23 20:47 | 55.43526 | 12.36553 | 3792 ft | 160 kts | 36° |
| 2026-04-23 20:48 | 55.44364 | 12.37846 | 3514 ft | 160 kts | 38° |
| 2026-04-23 20:48 | 55.45192 | 12.39159 | 3230 ft | 160 kts | 38° |
| 2026-04-23 20:48 | 55.46015 | 12.40466 | 3014 ft | 158 kts | 38° |
| 2026-04-23 20:48 | 55.46835 | 12.41757 | 2872 ft | 159 kts | 37° |
| 2026-04-23 20:49 | 55.47661 | 12.43004 | 2714 ft | 158 kts | 36° |
| 2026-04-23 20:49 | 55.48479 | 12.44207 | 2551 ft | 146 kts | 35° |
| 2026-04-23 20:49 | 55.49242 | 12.45309 | 2371 ft | 140 kts | 31° |
| 2026-04-23 20:49 | 55.50003 | 12.46416 | 2218 ft | 145 kts | 35° |
| 2026-04-23 20:50 | 55.50802 | 12.47537 | 2088 ft | 148 kts | 36° |
| 2026-04-23 20:50 | 55.51601 | 12.48686 | 1909 ft | 148 kts | 37° |
| 2026-04-23 20:50 | 55.52365 | 12.49907 | 1735 ft | 146 kts | 39° |
| 2026-04-23 20:50 | 55.53080 | 12.51093 | 1468 ft | 138 kts | 39° |
| 2026-04-23 20:51 | 55.53782 | 12.52197 | 1218 ft | 131 kts | 38° |
| 2026-04-23 20:51 | 55.54495 | 12.53265 | 1052 ft | 147 kts | 37° |
| 2026-04-23 20:51 | 55.55258 | 12.54363 | 951 ft | 133 kts | 36° |
| 2026-04-23 20:51 | 55.55952 | 12.55371 | 847 ft | 134 kts | 38° |
| 2026-04-23 20:52 | 55.56657 | 12.56455 | 810 ft | 135 kts | 39° |
| 2026-04-23 20:52 | 55.57362 | 12.57536 | 644 ft | 134 kts | 38° |
| 2026-04-23 20:52 | 55.58052 | 12.58591 | 405 ft | 127 kts | 40° |
| 2026-04-23 20:52 | 55.58721 | 12.59605 | 208 ft | 131 kts | 40° |
| 2026-04-23 20:53 | 55.59412 | 12.60657 | 47 ft | 127 kts | 42° |
| 2026-04-23 20:53 | 55.60021 | 12.61597 | 26 ft | 96 kts | 40° |
| 2026-04-23 20:53 | 55.60337 | 12.62085 | 20 ft | 21 kts | 40° |
| 2026-04-23 20:53 | 55.60453 | 12.62234 | 26 ft | 21 kts | 30° |
| 2026-04-23 20:54 | 55.60602 | 12.62331 | 28 ft | 18 kts | 13° |
| 2026-04-23 20:54 | 55.60753 | 12.62391 | 31 ft | 17 kts | 17° |
| 2026-04-23 20:54 | 55.60785 | 12.62413 | 29 ft | 0 kts | 24° |
| 2026-04-23 20:55 | 55.60786 | 12.62415 | 29 ft | 3 kts | 25° |
| 2026-04-23 20:55 | 55.60838 | 12.62476 | 26 ft | 12 kts | 39° |
| 2026-04-23 20:55 | 55.60925 | 12.62610 | 27 ft | 20 kts | 41° |
| 2026-04-23 20:56 | 55.61044 | 12.62794 | 27 ft | 25 kts | 41° |
| 2026-04-23 20:56 | 55.61184 | 12.63008 | 31 ft | 28 kts | 40° |
| 2026-04-23 20:56 | 55.61349 | 12.63272 | 30 ft | 37 kts | 40° |
| 2026-04-23 20:56 | 55.61496 | 12.63493 | 24 ft | 25 kts | 41° |
| 2026-04-23 20:57 | 55.61629 | 12.63698 | 25 ft | 25 kts | 41° |
| 2026-04-23 20:57 | 55.61749 | 12.63885 | 29 ft | 22 kts | 41° |
| 2026-04-23 20:57 | 55.61849 | 12.64039 | 28 ft | 19 kts | 40° |
| 2026-04-23 20:57 | 55.61960 | 12.64148 | 28 ft | 19 kts | 24° |
| 2026-04-23 20:58 | 55.62041 | 12.64213 | 23 ft | 20 kts | 24° |
| 2026-04-23 20:58 | 55.62140 | 12.64297 | 21 ft | 2 kts | 26° |
| 2026-04-23 20:58 | 55.62161 | 12.64315 | 22 ft | 2 kts | 25° |
| 2026-04-23 20:58 | 55.62186 | 12.64336 | 20 ft | 5 kts | 27° |
| 2026-04-23 20:59 | 55.62205 | 12.64373 | 23 ft | 7 kts | 58° |
| 2026-04-23 20:59 | 55.62209 | 12.64395 | 23 ft | 0 kts | 79° |
| 2026-04-23 20:59 | 55.62209 | 12.64399 | 23 ft | 2 kts | 81° |
| 2026-04-23 21:00 | 55.62191 | 12.64509 | 25 ft | 17 kts | 118° |
| 2026-04-23 21:00 | 55.62108 | 12.64740 | 27 ft | 28 kts | 123° |
| 2026-04-23 21:00 | 55.61999 | 12.65039 | 25 ft | 31 kts | 123° |
| 2026-04-23 21:00 | 55.61875 | 12.65373 | 21 ft | 34 kts | 123° |
| 2026-04-23 21:01 | 55.61748 | 12.65718 | 28 ft | 33 kts | 123° |
| 2026-04-23 21:01 | 55.61663 | 12.65975 | 27 ft | 23 kts | 114° |
| 2026-04-23 21:01 | 55.61655 | 12.66242 | 29 ft | 21 kts | 69° |
| 2026-04-23 21:01 | 55.61749 | 12.66392 | 26 ft | 18 kts | 22° |
| 2026-04-23 21:02 | 55.61818 | 12.66432 | 22 ft | 5 kts | 31° |
| 2026-04-23 21:02 | 55.61837 | 12.66483 | 24 ft | 5 kts | 62° |
| 2026-04-23 21:02 | 55.61853 | 12.66575 | 20 ft | 11 kts | 75° |
| 2026-04-23 21:02 | 55.61874 | 12.66749 | 21 ft | 18 kts | 79° |
| 2026-04-23 21:03 | 55.61885 | 12.66889 | 19 ft | 9 kts | 94° |
| 2026-04-23 21:03 | 55.61878 | 12.66925 | 21 ft | 3 kts | 111° |
| 2026-04-23 21:03 | 55.61864 | 12.66956 | 19 ft | 3 kts | 131° |
| 2026-04-23 21:03 | 55.61854 | 12.66992 | 20 ft | 5 kts | 115° |
| 2026-04-23 21:04 | 55.61849 | 12.67062 | 20 ft | 5 kts | 87° |
| 2026-04-23 21:04 | 55.61854 | 12.67120 | 20 ft | 0 kts | 79° |
| 2026-04-23 21:04 | 55.61855 | 12.67126 | 24 ft | 2 kts | 79° |
| 2026-04-23 21:04 | 55.61857 | 12.67142 | 23 ft | 0 kts | 80° |